sensor_id;sensor_type;location;lat;lon;timestamp;pressure;altitude;pressure_sealevel;temperature;humidity
77662;BME280;69666;52.136;5.424;2023-06-05T00:00:18;102491.44;;;14.12;75.64
77662;BME280;69666;52.136;5.424;2023-06-05T00:02:45;102493.25;;;14.12;75.88
77662;BME280;69666;52.136;5.424;2023-06-05T00:05:12;102503.16;;;14.07;75.34
77662;BME280;69666;52.136;5.424;2023-06-05T00:07:39;102501.41;;;14.06;76.05
77662;BME280;69666;52.136;5.424;2023-06-05T00:10:07;102502.44;;;13.99;75.87
77662;BME280;69666;52.136;5.424;2023-06-05T00:12:35;102503.53;;;13.90;75.54
77662;BME280;69666;52.136;5.424;2023-06-05T00:15:02;102508.03;;;13.88;77.40
77662;BME280;69666;52.136;5.424;2023-06-05T00:17:29;102505.38;;;13.86;76.65
77662;BME280;69666;52.136;5.424;2023-06-05T00:19:57;102500.91;;;13.87;77.17
77662;BME280;69666;52.136;5.424;2023-06-05T00:22:27;102500.19;;;13.79;76.38
77662;BME280;69666;52.136;5.424;2023-06-05T00:25:03;102495.78;;;13.76;77.92
77662;BME280;69666;52.136;5.424;2023-06-05T00:27:30;102494.03;;;13.74;77.97
77662;BME280;69666;52.136;5.424;2023-06-05T00:29:56;102500.28;;;13.74;77.94
77662;BME280;69666;52.136;5.424;2023-06-05T00:32:23;102488.81;;;13.68;77.97
77662;BME280;69666;52.136;5.424;2023-06-05T00:34:50;102495.13;;;13.64;78.85
77662;BME280;69666;52.136;5.424;2023-06-05T00:37:16;102500.50;;;13.64;78.98
77662;BME280;69666;52.136;5.424;2023-06-05T00:39:43;102494.38;;;13.59;80.21
77662;BME280;69666;52.136;5.424;2023-06-05T00:42:10;102505.13;;;13.56;78.50
77662;BME280;69666;52.136;5.424;2023-06-05T00:44:36;102506.00;;;13.56;78.99
77662;BME280;69666;52.136;5.424;2023-06-05T00:47:03;102503.47;;;13.50;79.56
77662;BME280;69666;52.136;5.424;2023-06-05T00:49:31;102504.41;;;13.46;79.58
77662;BME280;69666;52.136;5.424;2023-06-05T00:51:58;102501.78;;;13.43;80.33
77662;BME280;69666;52.136;5.424;2023-06-05T00:54:25;102500.03;;;13.42;80.69
77662;BME280;69666;52.136;5.424;2023-06-05T00:56:52;102496.47;;;13.41;79.89
77662;BME280;69666;52.136;5.424;2023-06-05T00:59:19;102505.47;;;13.39;79.45
77662;BME280;69666;52.136;5.424;2023-06-05T01:01:45;102498.31;;;13.39;80.10
77662;BME280;69666;52.136;5.424;2023-06-05T01:04:14;102495.75;;;13.33;81.27
77662;BME280;69666;52.136;5.424;2023-06-05T01:06:41;102496.66;;;13.31;80.06
77662;BME280;69666;52.136;5.424;2023-06-05T01:09:08;102499.50;;;13.23;80.71
77662;BME280;69666;52.136;5.424;2023-06-05T01:12:00;102499.50;;;13.23;80.40
77662;BME280;69666;52.136;5.424;2023-06-05T01:14:31;102497.81;;;13.19;81.08
77662;BME280;69666;52.136;5.424;2023-06-05T01:17:01;102501.34;;;13.20;81.08
77662;BME280;69666;52.136;5.424;2023-06-05T01:19:30;102496.06;;;13.13;81.13
77662;BME280;69666;52.136;5.424;2023-06-05T01:21:59;102497.88;;;13.13;80.96
77662;BME280;69666;52.136;5.424;2023-06-05T01:24:26;102488.97;;;13.12;81.54
77662;BME280;69666;52.136;5.424;2023-06-05T01:32:39;102481.97;;;13.05;79.28
77662;BME280;69666;52.136;5.424;2023-06-05T01:35:10;102487.34;;;13.04;81.17
77662;BME280;69666;52.136;5.424;2023-06-05T01:37:40;102481.97;;;13.05;81.30
77662;BME280;69666;52.136;5.424;2023-06-05T01:40:15;102477.63;;;12.98;80.56
77662;BME280;69666;52.136;5.424;2023-06-05T01:42:43;102484.72;;;13.01;82.27
77662;BME280;69666;52.136;5.424;2023-06-05T01:45:12;102468.81;;;12.95;81.31
77662;BME280;69666;52.136;5.424;2023-06-05T01:47:41;102472.41;;;12.92;82.11
77662;BME280;69666;52.136;5.424;2023-06-05T01:50:09;102472.44;;;12.91;82.40
77662;BME280;69666;52.136;5.424;2023-06-05T01:52:42;102474.25;;;12.87;82.62
77662;BME280;69666;52.136;5.424;2023-06-05T01:55:20;102474.34;;;12.84;83.11
77662;BME280;69666;52.136;5.424;2023-06-05T01:57:51;102477.03;;;12.83;82.93
77662;BME280;69666;52.136;5.424;2023-06-05T02:00:18;102469.94;;;12.80;81.16
77662;BME280;69666;52.136;5.424;2023-06-05T02:02:46;102470.81;;;12.80;83.14
77662;BME280;69666;52.136;5.424;2023-06-05T02:05:16;102463.75;;;12.76;83.04
77662;BME280;69666;52.136;5.424;2023-06-05T02:07:47;102467.38;;;12.75;83.02
77662;BME280;69666;52.136;5.424;2023-06-05T02:10:15;102464.81;;;12.68;82.34
77662;BME280;69666;52.136;5.424;2023-06-05T02:12:46;102465.69;;;12.68;83.09
77662;BME280;69666;52.136;5.424;2023-06-05T02:15:13;102457.78;;;12.64;83.26
77662;BME280;69666;52.136;5.424;2023-06-05T02:17:43;102466.69;;;12.63;83.78
77662;BME280;69666;52.136;5.424;2023-06-05T02:20:18;102464.06;;;12.58;83.27
77662;BME280;69666;52.136;5.424;2023-06-05T02:22:45;102463.22;;;12.56;82.94
77662;BME280;69666;52.136;5.424;2023-06-05T02:25:11;102469.53;;;12.52;83.61
77662;BME280;69666;52.136;5.424;2023-06-05T02:27:38;102468.69;;;12.47;83.86
77662;BME280;69666;52.136;5.424;2023-06-05T02:30:06;102466.03;;;12.47;83.45
77662;BME280;69666;52.136;5.424;2023-06-05T02:32:35;102458.13;;;12.42;84.38
77662;BME280;69666;52.136;5.424;2023-06-05T02:35:02;102455.47;;;12.39;85.08
77662;BME280;69666;52.136;5.424;2023-06-05T02:37:32;102455.56;;;12.33;84.72
77662;BME280;69666;52.136;5.424;2023-06-05T02:40:04;102452.94;;;12.32;83.50
77662;BME280;69666;52.136;5.424;2023-06-05T02:42:32;102456.44;;;12.34;84.15
77662;BME280;69666;52.136;5.424;2023-06-05T02:44:58;102456.50;;;12.32;84.21
77662;BME280;69666;52.136;5.424;2023-06-05T02:47:25;102457.41;;;12.30;83.07
77662;BME280;69666;52.136;5.424;2023-06-05T02:49:52;102457.44;;;12.27;84.79
77662;BME280;69666;52.136;5.424;2023-06-05T02:52:18;102453.06;;;12.23;83.67
77662;BME280;69666;52.136;5.424;2023-06-05T02:54:45;102451.34;;;12.20;84.79
77662;BME280;69666;52.136;5.424;2023-06-05T02:57:11;102443.38;;;12.17;84.96
77662;BME280;69666;52.136;5.424;2023-06-05T02:59:38;102450.50;;;12.17;84.80
77662;BME280;69666;52.136;5.424;2023-06-05T03:02:06;102448.72;;;12.16;84.81
77662;BME280;69666;52.136;5.424;2023-06-05T03:04:33;102444.28;;;12.15;85.13
77662;BME280;69666;52.136;5.424;2023-06-05T03:07:00;102447.94;;;12.09;85.05
77662;BME280;69666;52.136;5.424;2023-06-05T03:09:30;102445.28;;;12.09;84.54
77662;BME280;69666;52.136;5.424;2023-06-05T03:11:58;102447.97;;;12.07;85.52
77662;BME280;69666;52.136;5.424;2023-06-05T03:14:25;102442.75;;;12.00;85.03
77662;BME280;69666;52.136;5.424;2023-06-05T03:16:54;102446.31;;;11.97;85.48
77662;BME280;69666;52.136;5.424;2023-06-05T03:19:21;102437.47;;;11.94;85.16
77662;BME280;69666;52.136;5.424;2023-06-05T03:21:48;102439.28;;;11.92;86.03
77662;BME280;69666;52.136;5.424;2023-06-05T03:24:16;102438.41;;;11.90;85.73
77662;BME280;69666;52.136;5.424;2023-06-05T03:26:43;102435.78;;;11.88;85.32
77662;BME280;69666;52.136;5.424;2023-06-05T03:29:11;102430.47;;;11.87;86.40
77662;BME280;69666;52.136;5.424;2023-06-05T03:31:38;102426.91;;;11.88;86.26
77662;BME280;69666;52.136;5.424;2023-06-05T03:34:04;102429.56;;;11.88;86.55
77662;BME280;69666;52.136;5.424;2023-06-05T03:36:32;102434.91;;;11.86;85.77
77662;BME280;69666;52.136;5.424;2023-06-05T03:39:04;102432.25;;;11.86;85.71
77662;BME280;69666;52.136;5.424;2023-06-05T03:41:31;102430.47;;;11.87;85.34
77662;BME280;69666;52.136;5.424;2023-06-05T03:43:58;102435.81;;;11.85;85.51
77662;BME280;69666;52.136;5.424;2023-06-05T03:46:25;102435.81;;;11.85;85.95
77662;BME280;69666;52.136;5.424;2023-06-05T03:48:51;102438.50;;;11.85;85.95
77662;BME280;69666;52.136;5.424;2023-06-05T03:51:27;102438.50;;;11.84;85.69
77662;BME280;69666;52.136;5.424;2023-06-05T03:53:58;102430.56;;;11.79;86.04
77662;BME280;69666;52.136;5.424;2023-06-05T03:56:25;102439.50;;;11.77;86.25
77662;BME280;69666;52.136;5.424;2023-06-05T03:59:00;102439.50;;;11.74;86.63
77662;BME280;69666;52.136;5.424;2023-06-05T04:01:46;102438.63;;;11.73;85.36
77662;BME280;69666;52.136;5.424;2023-06-05T04:04:13;102444.84;;;11.75;85.81
77662;BME280;69666;52.136;5.424;2023-06-05T04:06:40;102439.53;;;11.70;86.20
77662;BME280;69666;52.136;5.424;2023-06-05T04:09:07;102451.94;;;11.73;86.53
77662;BME280;69666;52.136;5.424;2023-06-05T04:11:41;102443.06;;;11.71;86.00
77662;BME280;69666;52.136;5.424;2023-06-05T04:14:09;102449.28;;;11.73;86.24
77662;BME280;69666;52.136;5.424;2023-06-05T04:16:40;102447.50;;;11.75;86.24
77662;BME280;69666;52.136;5.424;2023-06-05T04:19:11;102443.03;;;11.74;85.62
77662;BME280;69666;52.136;5.424;2023-06-05T04:21:39;102451.03;;;11.74;87.97
77662;BME280;69666;52.136;5.424;2023-06-05T04:24:07;102446.59;;;11.75;86.88
77662;BME280;69666;52.136;5.424;2023-06-05T04:26:38;102451.06;;;11.76;87.07
77662;BME280;69666;52.136;5.424;2023-06-05T04:29:05;102451.88;;;11.81;85.93
77662;BME280;69666;52.136;5.424;2023-06-05T04:31:45;102449.19;;;11.81;86.43
77662;BME280;69666;52.136;5.424;2023-06-05T04:34:11;102442.16;;;11.78;87.01
77662;BME280;69666;52.136;5.424;2023-06-05T04:36:40;102447.41;;;11.81;86.24
77662;BME280;69666;52.136;5.424;2023-06-05T04:39:07;102450.06;;;11.83;86.81
77662;BME280;69666;52.136;5.424;2023-06-05T04:41:41;102458.06;;;11.84;87.53
77662;BME280;69666;52.136;5.424;2023-06-05T04:44:16;102458.03;;;11.87;85.91
77662;BME280;69666;52.136;5.424;2023-06-05T04:46:44;102461.50;;;11.92;87.40
77662;BME280;69666;52.136;5.424;2023-06-05T04:49:13;102463.28;;;11.90;87.02
77662;BME280;69666;52.136;5.424;2023-06-05T04:51:40;102463.25;;;11.95;87.47
77662;BME280;69666;52.136;5.424;2023-06-05T04:54:07;102470.34;;;11.97;87.46
77662;BME280;69666;52.136;5.424;2023-06-05T04:56:34;102467.59;;;12.02;88.42
77662;BME280;69666;52.136;5.424;2023-06-05T04:59:01;102477.44;;;12.00;87.48
77662;BME280;69666;52.136;5.424;2023-06-05T05:01:30;102465.81;;;12.01;86.21
77662;BME280;69666;52.136;5.424;2023-06-05T05:03:56;102467.59;;;12.02;88.04
77662;BME280;69666;52.136;5.424;2023-06-05T05:06:24;102474.69;;;12.04;87.11
77662;BME280;69666;52.136;5.424;2023-06-05T05:08:50;102470.19;;;12.06;88.54
77662;BME280;69666;52.136;5.424;2023-06-05T05:11:18;102465.66;;;12.13;88.00
77662;BME280;69666;52.136;5.424;2023-06-05T05:13:44;102473.66;;;12.12;87.83
77662;BME280;69666;52.136;5.424;2023-06-05T05:16:11;102463.84;;;12.17;88.04
77662;BME280;69666;52.136;5.424;2023-06-05T05:18:40;102467.38;;;12.19;88.29
77662;BME280;69666;52.136;5.424;2023-06-05T05:21:07;102469.03;;;12.24;88.09
77662;BME280;69666;52.136;5.424;2023-06-05T05:23:34;102465.41;;;12.31;87.90
77662;BME280;69666;52.136;5.424;2023-06-05T05:26:02;102473.31;;;12.37;87.64
77662;BME280;69666;52.136;5.424;2023-06-05T05:28:28;102468.81;;;12.41;87.90
77662;BME280;69666;52.136;5.424;2023-06-05T05:30:56;102466.06;;;12.46;88.00
77662;BME280;69666;52.136;5.424;2023-06-05T05:33:23;102475.81;;;12.48;87.67
77662;BME280;69666;52.136;5.424;2023-06-05T05:35:50;102470.31;;;12.57;87.86
77662;BME280;69666;52.136;5.424;2023-06-05T05:38:17;102473.66;;;12.71;86.88
77662;BME280;69666;52.136;5.424;2023-06-05T05:40:43;102469.81;;;12.88;85.52
77662;BME280;69666;52.136;5.424;2023-06-05T05:43:10;102466.00;;;13.01;86.50
77662;BME280;69666;52.136;5.424;2023-06-05T05:45:37;102466.59;;;13.20;86.09
77662;BME280;69666;52.136;5.424;2023-06-05T05:48:05;102476.13;;;13.34;85.17
77662;BME280;69666;52.136;5.424;2023-06-05T05:50:32;102464.25;;;13.49;84.98
77662;BME280;69666;52.136;5.424;2023-06-05T05:52:59;102470.09;;;13.68;84.50
77662;BME280;69666;52.136;5.424;2023-06-05T05:55:25;102465.22;;;13.86;83.16
77662;BME280;69666;52.136;5.424;2023-06-05T05:57:52;102462.22;;;14.03;83.08
77662;BME280;69666;52.136;5.424;2023-06-05T06:00:20;102457.47;;;14.16;82.66
77662;BME280;69666;52.136;5.424;2023-06-05T06:02:46;102471.38;;;14.32;81.93
77662;BME280;69666;52.136;5.424;2023-06-05T06:05:14;102468.34;;;14.48;80.82
77662;BME280;69666;52.136;5.424;2023-06-05T06:07:40;102468.75;;;14.67;80.77
77662;BME280;69666;52.136;5.424;2023-06-05T06:10:09;102470.16;;;14.82;80.87
77662;BME280;69666;52.136;5.424;2023-06-05T06:12:39;102468.94;;;14.95;79.91
77662;BME280;69666;52.136;5.424;2023-06-05T06:15:06;102471.44;;;15.03;79.03
77662;BME280;69666;52.136;5.424;2023-06-05T06:17:33;102467.06;;;15.31;78.33
77662;BME280;69666;52.136;5.424;2023-06-05T06:20:00;102464.13;;;15.40;78.41
77662;BME280;69666;52.136;5.424;2023-06-05T06:22:27;102465.56;;;15.53;77.93
77662;BME280;69666;52.136;5.424;2023-06-05T06:24:53;102470.50;;;15.68;77.08
77662;BME280;69666;52.136;5.424;2023-06-05T06:27:21;102455.59;;;15.89;76.40
77662;BME280;69666;52.136;5.424;2023-06-05T06:30:01;102462.88;;;16.14;75.63
77662;BME280;69666;52.136;5.424;2023-06-05T06:32:28;102465.03;;;16.30;74.52
77662;BME280;69666;52.136;5.424;2023-06-05T06:34:56;102471.38;;;16.56;73.76
77662;BME280;69666;52.136;5.424;2023-06-05T06:37:23;102466.88;;;16.56;72.80
77662;BME280;69666;52.136;5.424;2023-06-05T06:39:50;102465.75;;;16.65;72.05
77662;BME280;69666;52.136;5.424;2023-06-05T06:42:18;102468.13;;;16.74;72.83
77662;BME280;69666;52.136;5.424;2023-06-05T06:44:44;102472.50;;;16.76;71.25
77662;BME280;69666;52.136;5.424;2023-06-05T06:47:11;102469.72;;;16.79;71.71
77662;BME280;69666;52.136;5.424;2023-06-05T06:49:38;102461.50;;;16.84;71.56
77662;BME280;69666;52.136;5.424;2023-06-05T06:52:08;102470.91;;;16.97;71.80
77662;BME280;69666;52.136;5.424;2023-06-05T06:54:35;102465.59;;;17.21;70.00
77662;BME280;69666;52.136;5.424;2023-06-05T06:57:02;102465.81;;;17.64;69.63
77662;BME280;69666;52.136;5.424;2023-06-05T06:59:29;102465.47;;;17.97;68.60
77662;BME280;69666;52.136;5.424;2023-06-05T07:02:12;102469.78;;;18.24;66.69
77662;BME280;69666;52.136;5.424;2023-06-05T07:04:41;102473.59;;;18.18;65.56
77662;BME280;69666;52.136;5.424;2023-06-05T07:07:13;102475.25;;;18.22;67.01
77662;BME280;69666;52.136;5.424;2023-06-05T07:09:41;102471.34;;;18.30;66.40
77662;BME280;69666;52.136;5.424;2023-06-05T07:12:10;102473.38;;;18.46;65.90
77662;BME280;69666;52.136;5.424;2023-06-05T07:14:38;102468.91;;;18.69;65.71
77662;BME280;69666;52.136;5.424;2023-06-05T07:17:05;102477.69;;;18.94;64.75
77662;BME280;69666;52.136;5.424;2023-06-05T07:19:33;102470.00;;;19.05;63.34
77662;BME280;69666;52.136;5.424;2023-06-05T07:22:01;102464.09;;;19.17;63.25
77662;BME280;69666;52.136;5.424;2023-06-05T07:24:30;102468.13;;;19.27;62.98
77662;BME280;69666;52.136;5.424;2023-06-05T07:27:00;102462.25;;;19.38;62.62
77662;BME280;69666;52.136;5.424;2023-06-05T07:29:28;102466.38;;;19.47;62.92
77662;BME280;69666;52.136;5.424;2023-06-05T07:31:56;102460.88;;;19.68;62.72
77662;BME280;69666;52.136;5.424;2023-06-05T07:34:25;102465.16;;;19.93;61.17
77662;BME280;69666;52.136;5.424;2023-06-05T07:36:52;102463.69;;;20.04;61.89
77662;BME280;69666;52.136;5.424;2023-06-05T07:39:20;102465.56;;;20.42;60.98
77662;BME280;69666;52.136;5.424;2023-06-05T07:41:48;102459.00;;;20.82;58.01
77662;BME280;69666;52.136;5.424;2023-06-05T07:44:16;102460.63;;;20.86;57.13
77662;BME280;69666;52.136;5.424;2023-06-05T07:46:45;102461.97;;;21.11;56.23
77662;BME280;69666;52.136;5.424;2023-06-05T07:49:12;102459.88;;;21.18;56.34
77662;BME280;69666;52.136;5.424;2023-06-05T07:51:39;102470.66;;;21.35;55.70
77662;BME280;69666;52.136;5.424;2023-06-05T07:54:08;102458.38;;;21.11;55.30
77662;BME280;69666;52.136;5.424;2023-06-05T07:56:35;102463.66;;;20.97;55.84
77662;BME280;69666;52.136;5.424;2023-06-05T07:59:04;102460.94;;;20.97;56.92
77662;BME280;69666;52.136;5.424;2023-06-05T08:01:32;102455.94;;;21.06;54.08
77662;BME280;69666;52.136;5.424;2023-06-05T08:04:03;102458.56;;;21.25;54.85
77662;BME280;69666;52.136;5.424;2023-06-05T08:06:31;102469.06;;;21.31;56.34
77662;BME280;69666;52.136;5.424;2023-06-05T08:08:59;102462.38;;;21.38;55.41
77662;BME280;69666;52.136;5.424;2023-06-05T08:11:26;102457.59;;;21.43;56.19
77662;BME280;69666;52.136;5.424;2023-06-05T08:13:53;102464.75;;;21.44;56.48
77662;BME280;69666;52.136;5.424;2023-06-05T08:16:20;102464.59;;;21.47;54.97
77662;BME280;69666;52.136;5.424;2023-06-05T08:18:47;102458.16;;;21.50;55.07
77662;BME280;69666;52.136;5.424;2023-06-05T08:21:15;102451.34;;;21.59;56.56
77662;BME280;69666;52.136;5.424;2023-06-05T08:23:42;102445.28;;;21.86;55.23
77662;BME280;69666;52.136;5.424;2023-06-05T08:26:08;102449.66;;;22.06;53.10
77662;BME280;69666;52.136;5.424;2023-06-05T08:28:39;102447.44;;;22.13;52.57
77662;BME280;69666;52.136;5.424;2023-06-05T08:31:07;102456.91;;;22.21;52.03
77662;BME280;69666;52.136;5.424;2023-06-05T08:33:35;102443.59;;;22.33;52.68
77662;BME280;69666;52.136;5.424;2023-06-05T08:36:03;102448.41;;;22.28;51.83
77662;BME280;69666;52.136;5.424;2023-06-05T08:38:32;102440.00;;;22.32;52.92
77662;BME280;69666;52.136;5.424;2023-06-05T08:41:06;102438.84;;;22.52;50.94
77662;BME280;69666;52.136;5.424;2023-06-05T08:43:38;102434.19;;;22.54;51.60
77662;BME280;69666;52.136;5.424;2023-06-05T08:46:08;102429.88;;;22.66;50.72
77662;BME280;69666;52.136;5.424;2023-06-05T08:48:42;102432.69;;;22.80;53.21
77662;BME280;69666;52.136;5.424;2023-06-05T08:51:14;102432.84;;;23.07;49.81
77662;BME280;69666;52.136;5.424;2023-06-05T08:53:43;102429.13;;;23.23;49.02
77662;BME280;69666;52.136;5.424;2023-06-05T08:56:13;102435.13;;;23.28;48.61
77662;BME280;69666;52.136;5.424;2023-06-05T08:58:41;102421.94;;;23.37;50.54
77662;BME280;69666;52.136;5.424;2023-06-05T09:01:10;102424.25;;;23.28;49.92
77662;BME280;69666;52.136;5.424;2023-06-05T09:03:39;102423.28;;;23.29;50.45
77662;BME280;69666;52.136;5.424;2023-06-05T09:06:06;102426.91;;;23.44;49.19
77662;BME280;69666;52.136;5.424;2023-06-05T09:08:35;102423.63;;;23.82;49.02
77662;BME280;69666;52.136;5.424;2023-06-05T09:11:26;102427.75;;;24.01;48.53
77662;BME280;69666;52.136;5.424;2023-06-05T09:13:55;102411.94;;;24.08;46.85
77662;BME280;69666;52.136;5.424;2023-06-05T09:16:36;102415.44;;;24.10;47.69
77662;BME280;69666;52.136;5.424;2023-06-05T09:19:05;102412.28;;;24.16;47.12
77662;BME280;69666;52.136;5.424;2023-06-05T09:21:32;102413.28;;;24.29;44.74
77662;BME280;69666;52.136;5.424;2023-06-05T09:26:49;102417.66;;;24.71;44.96
77662;BME280;69666;52.136;5.424;2023-06-05T09:29:25;102413.53;;;24.79;47.18
77662;BME280;69666;52.136;5.424;2023-06-05T09:31:56;102419.44;;;24.85;45.37
77662;BME280;69666;52.136;5.424;2023-06-05T09:34:33;102408.09;;;24.79;44.75
77662;BME280;69666;52.136;5.424;2023-06-05T09:37:02;102407.09;;;25.06;46.90
77662;BME280;69666;52.136;5.424;2023-06-05T09:39:32;102408.00;;;25.20;44.43
77662;BME280;69666;52.136;5.424;2023-06-05T09:41:59;102405.69;;;25.26;50.35
77662;BME280;69666;52.136;5.424;2023-06-05T09:44:28;102403.94;;;25.38;47.34
77662;BME280;69666;52.136;5.424;2023-06-05T09:47:00;102400.44;;;25.49;43.27
77662;BME280;69666;52.136;5.424;2023-06-05T09:49:32;102398.59;;;25.36;44.94
77662;BME280;69666;52.136;5.424;2023-06-05T09:52:01;102397.41;;;25.40;42.31
77662;BME280;69666;52.136;5.424;2023-06-05T09:54:29;102397.31;;;25.29;41.87
77662;BME280;69666;52.136;5.424;2023-06-05T09:57:02;102390.31;;;25.38;44.19
77662;BME280;69666;52.136;5.424;2023-06-05T09:59:35;102389.84;;;25.57;46.57
77662;BME280;69666;52.136;5.424;2023-06-05T10:02:05;102391.69;;;25.56;45.18
77662;BME280;69666;52.136;5.424;2023-06-05T10:04:37;102385.28;;;25.70;44.75
77662;BME280;69666;52.136;5.424;2023-06-05T10:07:05;102383.94;;;25.75;42.11
77662;BME280;69666;52.136;5.424;2023-06-05T10:09:33;102372.91;;;25.90;44.64
77662;BME280;69666;52.136;5.424;2023-06-05T10:12:01;102379.34;;;25.89;42.75
77662;BME280;69666;52.136;5.424;2023-06-05T10:14:29;102385.25;;;25.83;43.82
77662;BME280;69666;52.136;5.424;2023-06-05T10:16:57;102381.38;;;25.98;42.60
77662;BME280;69666;52.136;5.424;2023-06-05T10:19:24;102378.97;;;26.06;43.86
77662;BME280;69666;52.136;5.424;2023-06-05T10:21:51;102372.47;;;25.96;41.39
77662;BME280;69666;52.136;5.424;2023-06-05T10:24:26;102373.38;;;25.84;42.18
77662;BME280;69666;52.136;5.424;2023-06-05T10:33:30;102373.22;;;26.22;44.54
77662;BME280;69666;52.136;5.424;2023-06-05T10:38:33;102364.09;;;26.10;40.88
77662;BME280;69666;52.136;5.424;2023-06-05T10:41:02;102361.53;;;26.19;40.84
77662;BME280;69666;52.136;5.424;2023-06-05T10:43:35;102351.84;;;26.28;40.18
77662;BME280;69666;52.136;5.424;2023-06-05T10:46:32;102352.34;;;26.33;45.04
77662;BME280;69666;52.136;5.424;2023-06-05T10:49:17;102353.06;;;26.11;43.07
77662;BME280;69666;52.136;5.424;2023-06-05T10:51:48;102362.78;;;26.15;41.79
77662;BME280;69666;52.136;5.424;2023-06-05T10:57:04;102353.38;;;26.43;46.36
77662;BME280;69666;52.136;5.424;2023-06-05T10:59:38;102354.41;;;26.53;41.56
77662;BME280;69666;52.136;5.424;2023-06-05T11:07:26;102345.66;;;26.37;43.46
77662;BME280;69666;52.136;5.424;2023-06-05T11:15:34;102347.00;;;26.32;41.41
77662;BME280;69666;52.136;5.424;2023-06-05T11:18:25;102344.75;;;26.13;41.43
77662;BME280;69666;52.136;5.424;2023-06-05T11:20:53;102335.59;;;26.14;42.08
77662;BME280;69666;52.136;5.424;2023-06-05T11:23:20;102340.91;;;26.28;42.58
77662;BME280;69666;52.136;5.424;2023-06-05T11:25:49;102335.97;;;26.33;41.91
77662;BME280;69666;52.136;5.424;2023-06-05T11:28:37;102335.13;;;26.20;40.88
77662;BME280;69666;52.136;5.424;2023-06-05T11:31:03;102331.13;;;26.13;41.59
77662;BME280;69666;52.136;5.424;2023-06-05T11:33:31;102335.88;;;26.22;45.50
77662;BME280;69666;52.136;5.424;2023-06-05T11:36:03;102326.25;;;26.05;42.72
77662;BME280;69666;52.136;5.424;2023-06-05T11:38:31;102333.72;;;25.91;41.19
77662;BME280;69666;52.136;5.424;2023-06-05T11:40:58;102328.66;;;25.73;42.02
77662;BME280;69666;52.136;5.424;2023-06-05T11:43:24;102324.63;;;25.66;42.26
77662;BME280;69666;52.136;5.424;2023-06-05T11:45:53;102324.28;;;25.71;42.17
77662;BME280;69666;52.136;5.424;2023-06-05T11:48:21;102326.81;;;25.74;44.15
77662;BME280;69666;52.136;5.424;2023-06-05T11:51:04;102318.72;;;25.72;42.22
77662;BME280;69666;52.136;5.424;2023-06-05T11:53:34;102321.78;;;25.55;43.15
77662;BME280;69666;52.136;5.424;2023-06-05T11:56:00;102319.22;;;25.41;43.11
77662;BME280;69666;52.136;5.424;2023-06-05T11:58:31;102320.09;;;25.29;42.27
77662;BME280;69666;52.136;5.424;2023-06-05T12:01:12;102317.16;;;25.19;45.05
77662;BME280;69666;52.136;5.424;2023-06-05T12:03:45;102320.72;;;25.32;45.04
77662;BME280;69666;52.136;5.424;2023-06-05T12:06:13;102316.81;;;25.36;45.57
77662;BME280;69666;52.136;5.424;2023-06-05T12:08:41;102317.28;;;25.30;43.10
77662;BME280;69666;52.136;5.424;2023-06-05T12:11:26;102311.25;;;25.25;45.63
77662;BME280;69666;52.136;5.424;2023-06-05T12:13:56;102307.91;;;25.09;44.98
77662;BME280;69666;52.136;5.424;2023-06-05T12:16:35;102310.75;;;25.07;45.62
77662;BME280;69666;52.136;5.424;2023-06-05T12:19:11;102313.00;;;25.14;46.61
77662;BME280;69666;52.136;5.424;2023-06-05T12:21:43;102320.88;;;25.05;46.34
77662;BME280;69666;52.136;5.424;2023-06-05T12:24:10;102309.00;;;25.06;48.20
77662;BME280;69666;52.136;5.424;2023-06-05T12:26:55;102309.88;;;25.07;46.95
77662;BME280;69666;52.136;5.424;2023-06-05T12:29:33;102310.41;;;24.99;48.48
77662;BME280;69666;52.136;5.424;2023-06-05T12:32:02;102311.47;;;25.09;47.27
77662;BME280;69666;52.136;5.424;2023-06-05T12:37:27;102307.78;;;24.85;45.85
77662;BME280;69666;52.136;5.424;2023-06-05T12:39:57;102314.19;;;24.84;47.25
77662;BME280;69666;52.136;5.424;2023-06-05T12:42:27;102315.47;;;24.79;46.77
77662;BME280;69666;52.136;5.424;2023-06-05T12:44:54;102314.41;;;24.81;47.27
77662;BME280;69666;52.136;5.424;2023-06-05T12:47:21;102307.44;;;24.64;47.58
77662;BME280;69666;52.136;5.424;2023-06-05T12:49:49;102309.72;;;24.70;49.06
77662;BME280;69666;52.136;5.424;2023-06-05T12:52:15;102308.41;;;24.76;49.70
77662;BME280;69666;52.136;5.424;2023-06-05T12:54:42;102309.91;;;24.67;49.64
77662;BME280;69666;52.136;5.424;2023-06-05T12:57:09;102300.34;;;24.62;48.85
77662;BME280;69666;52.136;5.424;2023-06-05T12:59:39;102293.00;;;24.50;52.21
77662;BME280;69666;52.136;5.424;2023-06-05T13:02:05;102302.50;;;24.57;51.53
77662;BME280;69666;52.136;5.424;2023-06-05T13:04:32;102295.09;;;24.59;51.17
77662;BME280;69666;52.136;5.424;2023-06-05T13:07:02;102297.59;;;24.49;48.80
77662;BME280;69666;52.136;5.424;2023-06-05T13:09:29;102292.78;;;24.40;46.68
77662;BME280;69666;52.136;5.424;2023-06-05T13:11:56;102293.06;;;24.23;49.95
77662;BME280;69666;52.136;5.424;2023-06-05T13:14:26;102286.78;;;24.22;48.64
77662;BME280;69666;52.136;5.424;2023-06-05T13:16:52;102284.38;;;24.03;50.03
77662;BME280;69666;52.136;5.424;2023-06-05T13:19:19;102275.47;;;24.14;52.14
77662;BME280;69666;52.136;5.424;2023-06-05T13:21:47;102274.41;;;24.17;51.38
77662;BME280;69666;52.136;5.424;2023-06-05T13:24:14;102273.81;;;23.99;48.79
77662;BME280;69666;52.136;5.424;2023-06-05T13:26:41;102270.94;;;23.88;50.75
77662;BME280;69666;52.136;5.424;2023-06-05T13:29:09;102267.03;;;23.92;51.44
77662;BME280;69666;52.136;5.424;2023-06-05T13:31:37;102267.66;;;23.83;49.02
77662;BME280;69666;52.136;5.424;2023-06-05T13:34:03;102261.91;;;23.87;50.14